Time;durP1;ratioP1;P1;durP2;ratioP2;P2;SDS_P1;SDS_P2;PMS_P1;PMS_P2;Temp;Humidity;BMP_temperature;BMP_pressure;BME280_temperature;BME280_humidity;BME280_pressure;Samples;Min_cycle;Max_cycle;Signal;HPM_P1;HPM_P2
2022/05/26 00:01:22;;;;;;;11.90;9.20;;;16.00;99.90;;;;;;4958358;28;92942;-73
2022/05/26 00:03:50;;;;;;;13.55;10.20;;;16.00;99.90;;;;;;4957603;28;94847;-73
2022/05/26 00:06:20;;;;;;;11.40;9.20;;;16.00;99.90;;;;;;4957990;28;92501;-73
2022/05/26 00:08:47;;;;;;;12.65;9.07;;;16.00;99.90;;;;;;4958158;28;95747;-74
2022/05/26 00:11:20;;;;;;;13.13;8.77;;;16.00;99.90;;;;;;4975810;28;93109;-73
2022/05/26 00:13:48;;;;;;;9.55;7.93;;;16.00;99.90;;;;;;4972125;28;92881;-73
2022/05/26 00:16:18;;;;;;;9.38;7.85;;;16.00;99.90;;;;;;4975091;28;92400;-73
2022/05/26 00:18:45;;;;;;;9.57;8.48;;;16.00;99.90;;;;;;4942288;28;94289;-73
2022/05/26 00:21:13;;;;;;;8.02;7.22;;;16.00;99.90;;;;;;4976135;28;92927;-72
2022/05/26 00:23:41;;;;;;;7.68;6.18;;;16.00;99.90;;;;;;4958291;28;92497;-73
2022/05/26 00:26:08;;;;;;;8.07;6.47;;;16.00;99.90;;;;;;4976138;28;92591;-73
2022/05/26 00:28:35;;;;;;;6.03;5.50;;;16.00;99.90;;;;;;4974267;28;95558;-73
2022/05/26 00:31:01;;;;;;;6.90;6.00;;;16.00;99.90;;;;;;4958059;28;98051;-73
2022/05/26 00:33:28;;;;;;;9.15;5.10;;;16.00;99.90;;;;;;4958339;28;92560;-73
2022/05/26 00:36:00;;;;;;;5.25;4.47;;;16.00;99.90;;;;;;4958423;28;92522;-73
2022/05/26 00:38:27;;;;;;;6.72;3.97;;;16.00;99.90;;;;;;4975761;28;93167;-73
2022/05/26 00:41:04;;;;;;;5.43;5.03;;;16.00;99.90;;;;;;4957756;28;94041;-73
2022/05/26 00:43:31;;;;;;;5.18;3.80;;;16.10;99.90;;;;;;4958246;28;92446;-72
2022/05/26 00:46:18;;;;;;;4.35;3.38;;;16.00;99.90;;;;;;4958740;28;92008;-73
2022/05/26 00:48:53;;;;;;;4.30;3.90;;;16.10;99.90;;;;;;4975441;28;93306;-73
2022/05/26 00:51:28;;;;;;;5.80;4.00;;;16.10;99.90;;;;;;4975422;28;92475;-73
2022/05/26 00:53:58;;;;;;;6.82;3.95;;;16.10;99.90;;;;;;4953135;28;94908;-73
2022/05/26 00:56:50;;;;;;;4.00;3.60;;;16.10;99.90;;;;;;4955781;28;92442;-73
2022/05/26 00:59:23;;;;;;;6.63;4.53;;;16.10;99.90;;;;;;4954258;28;95686;-73
2022/05/26 01:01:50;;;;;;;6.50;5.45;;;16.00;99.90;;;;;;4954903;28;93228;-73
2022/05/26 01:04:21;;;;;;;4.63;4.00;;;16.00;99.90;;;;;;4954067;28;103028;-73
2022/05/26 01:06:59;;;;;;;9.23;4.70;;;16.10;99.90;;;;;;4954979;28;92382;-73
2022/05/26 01:09:26;;;;;;;6.57;5.55;;;16.10;99.90;;;;;;4954401;28;95789;-73
2022/05/26 01:11:53;;;;;;;6.72;5.40;;;16.00;99.90;;;;;;4938447;28;94093;-73
2022/05/26 01:14:29;;;;;;;7.18;6.38;;;16.00;99.90;;;;;;4954464;28;93296;-73
2022/05/26 01:17:05;;;;;;;6.68;6.07;;;16.10;99.90;;;;;;4954982;28;92599;-73
2022/05/26 01:20:03;;;;;;;9.27;7.45;;;16.10;99.90;;;;;;4952846;28;98468;-73
2022/05/26 01:23:01;;;;;;;10.35;8.35;;;16.10;99.90;;;;;;4954018;28;96524;-73
2022/05/26 01:25:46;;;;;;;10.23;7.68;;;16.10;99.90;;;;;;4954106;28;92884;-72
2022/05/26 01:28:38;;;;;;;11.60;8.68;;;16.00;99.90;;;;;;4956951;28;92506;-72
2022/05/26 01:31:26;;;;;;;11.98;9.15;;;16.10;99.90;;;;;;4957663;28;94137;-72
2022/05/26 01:34:28;;;;;;;17.40;11.35;;;16.10;99.90;;;;;;4959113;28;92917;-72
2022/05/26 01:37:05;;;;;;;17.35;10.32;;;16.10;99.90;;;;;;4958805;28;92915;-72
2022/05/26 01:39:38;;;;;;;18.67;10.23;;;16.00;99.90;;;;;;4958629;28;91688;-72
2022/05/26 01:42:14;;;;;;;18.27;11.48;;;16.00;99.90;;;;;;4958344;28;93093;-72
2022/05/26 01:45:07;;;;;;;18.58;11.40;;;16.10;99.90;;;;;;4958179;28;93245;-72
2022/05/26 01:47:41;;;;;;;18.58;11.73;;;16.10;99.90;;;;;;4957006;28;94726;-72
2022/05/26 01:50:25;;;;;;;17.83;12.43;;;16.10;99.90;;;;;;4957060;28;92490;-72
2022/05/26 01:53:24;;;;;;;25.60;12.55;;;16.10;99.90;;;;;;4956340;28;97181;-72
2022/05/26 01:56:05;;;;;;;25.00;13.18;;;16.00;99.90;;;;;;4940073;28;92517;-72
2022/05/26 01:58:39;;;;;;;25.27;12.80;;;15.90;99.90;;;;;;4957826;28;92487;-72
2022/05/26 02:01:18;;;;;;;25.08;13.25;;;15.90;99.90;;;;;;4958318;28;92496;-72
2022/05/26 02:03:48;;;;;;;27.02;12.60;;;15.90;99.90;;;;;;4956433;28;94795;-72
2022/05/26 02:06:38;;;;;;;25.45;12.93;;;15.80;99.90;;;;;;4958384;28;93585;-72
2022/05/26 02:09:13;;;;;;;26.73;12.38;;;15.80;99.90;;;;;;4956704;28;92550;-72
2022/05/26 02:11:55;;;;;;;26.02;13.07;;;15.70;99.90;;;;;;4956032;28;92632;-72
2022/05/26 02:14:35;;;;;;;29.05;12.75;;;15.70;99.90;;;;;;4956529;28;95941;-72
2022/05/26 02:17:23;;;;;;;26.50;13.27;;;15.70;99.90;;;;;;4957727;28;95468;-72
2022/05/26 02:20:04;;;;;;;35.90;13.48;;;15.60;99.90;;;;;;4956154;28;92943;-72
2022/05/26 02:22:53;;;;;;;25.80;12.88;;;15.60;99.90;;;;;;4957971;28;93120;-72
2022/05/26 02:25:23;;;;;;;25.75;12.20;;;15.60;99.90;;;;;;4957793;28;93187;-72
2022/05/26 02:27:55;;;;;;;29.13;12.73;;;15.50;99.90;;;;;;4955706;28;95655;-72
2022/05/26 02:30:28;;;;;;;29.23;11.60;;;15.60;99.90;;;;;;4956447;28;92456;-71
2022/05/26 02:32:55;;;;;;;30.87;12.77;;;15.60;99.90;;;;;;4956623;28;91774;-72
2022/05/26 02:35:34;;;;;;;28.42;11.25;;;15.60;99.90;;;;;;4956111;28;93188;-72
2022/05/26 02:38:15;;;;;;;31.73;13.90;;;15.70;99.90;;;;;;4957224;28;93213;-71
2022/05/26 02:40:43;;;;;;;31.50;13.43;;;15.60;99.90;;;;;;4954406;28;94916;-72
2022/05/26 02:43:19;;;;;;;29.25;11.00;;;15.60;99.90;;;;;;4955883;28;92513;-72
2022/05/26 02:45:51;;;;;;;32.35;13.95;;;15.60;99.90;;;;;;4957104;28;93328;-72
2022/05/26 02:48:37;;;;;;;25.33;11.37;;;15.70;99.90;;;;;;4957664;28;92928;-72
2022/05/26 02:51:45;;;;;;;29.90;11.40;;;15.80;99.90;;;;;;4957254;28;92344;-71
2022/05/26 02:54:14;;;;;;;27.30;12.10;;;15.80;99.90;;;;;;4935492;28;92647;-72
2022/05/26 02:56:46;;;;;;;30.30;11.75;;;15.80;99.90;;;;;;4955541;28;95814;-72
2022/05/26 02:59:24;;;;;;;25.58;12.57;;;15.80;99.90;;;;;;4956264;28;93143;-72
2022/05/26 03:02:16;;;;;;;25.58;11.88;;;15.80;99.90;;;;;;4955567;28;92609;-71
2022/05/26 03:04:53;;;;;;;26.90;11.70;;;15.80;99.90;;;;;;4956636;28;92451;-71
2022/05/26 03:07:24;;;;;;;31.90;11.63;;;15.90;99.90;;;;;;4954429;28;95709;-71
2022/05/26 03:09:52;;;;;;;26.13;11.77;;;15.90;99.90;;;;;;4956797;28;95660;-72
2022/05/26 03:12:29;;;;;;;29.05;11.77;;;15.80;99.90;;;;;;4956831;28;92573;-72
2022/05/26 03:14:57;;;;;;;33.00;10.82;;;15.90;99.90;;;;;;4939184;28;92807;-71
2022/05/26 03:17:24;;;;;;;34.25;10.88;;;15.80;99.90;;;;;;4956826;28;93185;-72
2022/05/26 03:19:51;;;;;;;31.13;10.70;;;15.80;99.90;;;;;;4956096;28;95454;-72
2022/05/26 03:22:19;;;;;;;30.77;11.18;;;15.80;99.90;;;;;;4956781;28;92453;-72
2022/05/26 03:24:46;;;;;;;26.27;10.43;;;15.90;99.90;;;;;;4955787;28;91692;-72
2022/05/26 03:27:13;;;;;;;27.35;11.23;;;15.90;99.90;;;;;;4956693;28;93227;-72
2022/05/26 03:29:40;;;;;;;22.92;9.63;;;15.80;99.90;;;;;;4956741;28;92541;-72
2022/05/26 03:32:08;;;;;;;32.20;10.10;;;15.90;99.90;;;;;;4954897;28;94950;-72
2022/05/26 03:42:52;;;;;;;25.63;9.52;;;15.90;99.90;;;;;;4954756;28;92578;-72
2022/05/26 03:45:22;;;;;;;26.50;10.02;;;15.80;99.90;;;;;;4957215;28;92453;-72
2022/05/26 03:47:50;;;;;;;25.55;9.25;;;15.90;99.90;;;;;;4955000;28;93291;-72
2022/05/26 03:50:18;;;;;;;27.73;9.15;;;15.90;99.90;;;;;;4956937;28;93096;-72
2022/05/26 03:52:44;;;;;;;26.25;8.60;;;15.90;99.90;;;;;;4952480;28;92610;-72
2022/05/26 03:55:12;;;;;;;25.15;7.93;;;15.90;99.90;;;;;;4955329;28;92666;-71
2022/05/26 03:57:38;;;;;;;28.45;8.77;;;15.90;99.90;;;;;;4955627;28;95724;-72
2022/05/26 04:00:06;;;;;;;26.15;7.80;;;15.90;99.90;;;;;;4939279;28;94272;-71
2022/05/26 04:02:40;;;;;;;26.08;8.77;;;15.90;99.90;;;;;;4957022;28;92560;-72
2022/05/26 04:05:08;;;;;;;25.55;8.00;;;16.00;99.90;;;;;;4955252;28;92484;-72
2022/05/26 04:07:36;;;;;;;22.20;7.30;;;16.00;99.90;;;;;;4956615;28;93230;-72
2022/05/26 04:10:04;;;;;;;19.17;6.43;;;16.10;99.90;;;;;;4956372;28;92945;-72
2022/05/26 04:12:32;;;;;;;20.60;6.95;;;16.20;99.90;;;;;;4955461;28;92425;-72
2022/05/26 04:15:00;;;;;;;26.95;6.68;;;16.20;99.90;;;;;;4939493;28;91717;-72
2022/05/26 04:17:27;;;;;;;20.10;6.55;;;16.10;99.90;;;;;;4955167;28;98661;-72
2022/05/26 04:19:55;;;;;;;22.05;8.02;;;16.10;99.90;;;;;;4956217;28;92922;-72
2022/05/26 04:22:23;;;;;;;25.88;7.15;;;16.00;99.90;;;;;;4955042;28;95345;-72
2022/05/26 04:24:55;;;;;;;18.67;6.40;;;16.10;99.90;;;;;;4956268;28;92401;-72
2022/05/26 04:27:25;;;;;;;21.60;5.93;;;16.10;99.90;;;;;;4956626;28;93143;-72
2022/05/26 04:29:53;;;;;;;26.25;7.00;;;16.10;99.90;;;;;;4954630;28;95653;-72
2022/05/26 04:32:22;;;;;;;21.35;5.43;;;16.10;99.90;;;;;;4955380;28;92436;-72
2022/05/26 04:34:50;;;;;;;22.17;6.90;;;16.20;99.90;;;;;;4954831;28;92480;-72
2022/05/26 04:37:21;;;;;;;15.15;6.25;;;16.20;99.90;;;;;;4956260;28;93201;-72
2022/05/26 04:39:50;;;;;;;21.65;6.13;;;16.40;99.90;;;;;;4955487;28;93166;-72
2022/05/26 04:42:18;;;;;;;18.75;5.28;;;16.40;99.90;;;;;;4956174;28;92465;-72
2022/05/26 04:44:46;;;;;;;18.35;5.25;;;16.50;99.90;;;;;;4954974;28;92604;-72
2022/05/26 04:47:14;;;;;;;20.13;5.65;;;16.50;99.90;;;;;;4954614;28;95686;-71
2022/05/26 04:49:41;;;;;;;13.90;4.63;;;16.50;99.90;;;;;;4954536;28;95283;-71
2022/05/26 04:52:11;;;;;;;20.45;5.47;;;16.50;99.90;;;;;;4954721;28;92599;-72
2022/05/26 04:54:38;;;;;;;17.35;5.15;;;16.50;99.90;;;;;;4976128;28;92742;-72
2022/05/26 04:57:06;;;;;;;19.02;6.38;;;16.50;99.90;;;;;;4957987;28;93164;-72
2022/05/26 04:59:34;;;;;;;14.75;5.32;;;16.50;99.90;;;;;;4941450;28;97704;-71
2022/05/26 05:02:01;;;;;;;18.17;5.57;;;16.50;99.90;;;;;;4941356;28;92451;-72
2022/05/26 05:04:28;;;;;;;17.60;5.13;;;16.60;99.90;;;;;;4978501;28;91697;-72
2022/05/26 05:06:56;;;;;;;20.20;5.07;;;16.60;99.90;;;;;;4978718;28;92938;-72
2022/05/26 05:09:23;;;;;;;22.63;7.18;;;16.60;99.90;;;;;;4961411;28;92985;-71
2022/05/26 05:11:51;;;;;;;19.33;4.88;;;16.70;99.90;;;;;;4977928;28;94907;-71
2022/05/26 05:14:18;;;;;;;14.25;5.57;;;16.70;99.90;;;;;;4961291;28;92515;-72
2022/05/26 05:16:46;;;;;;;22.88;5.10;;;16.80;99.90;;;;;;4960983;28;96042;-71
2022/05/26 05:19:16;;;;;;;19.42;6.03;;;16.90;99.90;;;;;;4978479;28;95285;-72
2022/05/26 05:22:03;;;;;;;13.88;3.70;;;17.00;99.90;;;;;;4960900;28;92445;-72
2022/05/26 05:24:55;;;;;;;16.30;3.97;;;17.10;99.90;;;;;;4978976;28;92466;-72
2022/05/26 05:27:28;;;;;;;15.85;4.45;;;17.20;99.90;;;;;;4978887;28;93236;-71
2022/05/26 05:29:59;;;;;;;10.63;3.30;;;17.10;99.90;;;;;;4961610;28;92765;-71
2022/05/26 05:32:39;;;;;;;13.93;4.45;;;17.20;99.90;;;;;;4978899;28;92487;-72
2022/05/26 05:35:14;;;;;;;12.57;3.30;;;17.30;99.90;;;;;;4960664;28;93091;-72
2022/05/26 05:37:42;;;;;;;15.85;4.30;;;17.30;99.90;;;;;;4977333;28;94765;-72
2022/05/26 05:40:09;;;;;;;8.95;3.65;;;17.40;99.90;;;;;;4978250;28;94057;-72
2022/05/26 05:42:36;;;;;;;9.32;3.63;;;17.60;99.90;;;;;;4978545;28;92510;-72
2022/05/26 05:45:03;;;;;;;6.22;2.25;;;17.70;99.90;;;;;;4978451;28;92443;-72
2022/05/26 05:47:30;;;;;;;10.32;3.83;;;17.90;99.90;;;;;;4978284;28;93091;-72
2022/05/26 05:49:57;;;;;;;10.57;3.10;;;18.00;99.70;;;;;;4960035;28;95552;-72
2022/05/26 05:52:25;;;;;;;6.50;2.40;;;18.10;99.40;;;;;;4977599;28;92516;-72
2022/05/26 05:54:55;;;;;;;9.80;2.42;;;18.10;98.90;;;;;;4979066;28;92079;-72
2022/05/26 05:57:22;;;;;;;10.25;3.50;;;18.20;98.70;;;;;;4960337;28;94355;-72
2022/05/26 05:59:49;;;;;;;5.57;2.22;;;18.30;98.70;;;;;;4960367;28;95707;-72
2022/05/26 06:02:17;;;;;;;7.57;2.95;;;18.30;98.50;;;;;;4959089;28;95114;-72
2022/05/26 06:04:59;;;;;;;6.22;2.15;;;18.50;98.20;;;;;;4978289;28;92441;-72
2022/05/26 06:07:26;;;;;;;9.07;2.90;;;18.50;98.10;;;;;;4959866;28;95864;-72
2022/05/26 06:09:53;;;;;;;9.23;3.03;;;18.70;97.70;;;;;;4960446;28;92990;-72
2022/05/26 06:12:21;;;;;;;8.95;2.40;;;18.90;97.50;;;;;;4943952;28;92539;-72
2022/05/26 06:14:49;;;;;;;6.10;1.90;;;18.90;97.00;;;;;;4943806;28;92895;-72
2022/05/26 06:17:16;;;;;;;5.65;1.85;;;19.10;96.90;;;;;;4977456;28;93204;-72
2022/05/26 06:19:44;;;;;;;3.83;1.58;;;19.10;96.20;;;;;;4959997;28;95533;-72
2022/05/26 06:22:16;;;;;;;8.07;3.13;;;19.20;95.90;;;;;;4977527;28;92405;-72
2022/05/26 06:24:43;;;;;;;13.38;2.85;;;19.30;95.90;;;;;;4977762;28;92449;-72
2022/05/26 06:29:59;;;;;;;5.25;3.15;;;19.30;95.90;;;;;;4977603;28;94227;-72
2022/05/26 06:38:03;;;;;;;5.22;1.50;;;19.20;95.80;;;;;;4977488;28;93396;-72
2022/05/26 06:40:31;;;;;;;6.55;2.03;;;19.30;96.10;;;;;;4960231;28;92907;-72
2022/05/26 06:42:58;;;;;;;5.93;1.65;;;19.20;95.80;;;;;;4959079;28;105629;-72
2022/05/26 06:45:25;;;;;;;5.28;2.40;;;19.30;95.70;;;;;;4943498;28;91756;-73
2022/05/26 06:47:53;;;;;;;5.88;2.08;;;19.30;95.60;;;;;;4959576;28;95914;-72
2022/05/26 06:50:20;;;;;;;4.80;2.05;;;19.30;95.70;;;;;;4959786;28;92960;-73
2022/05/26 06:52:46;;;;;;;7.72;2.67;;;19.30;95.60;;;;;;4975859;28;94886;-72
2022/05/26 06:55:13;;;;;;;3.83;2.08;;;19.40;95.70;;;;;;4942968;28;92657;-72
2022/05/26 06:57:40;;;;;;;6.32;1.80;;;19.60;95.30;;;;;;4977157;28;93435;-73
2022/05/26 07:00:09;;;;;;;5.85;3.05;;;19.80;95.10;;;;;;4959928;28;92964;-73
2022/05/26 07:02:38;;;;;;;4.68;1.70;;;20.00;94.60;;;;;;4959810;28;92650;-73
2022/05/26 07:05:05;;;;;;;5.40;2.38;;;20.30;94.30;;;;;;4977134;28;92534;-72
2022/05/26 07:07:34;;;;;;;4.45;2.00;;;20.40;93.50;;;;;;4958968;28;94271;-73
2022/05/26 07:10:03;;;;;;;4.20;2.45;;;20.50;93.30;;;;;;4977433;28;93080;-72
2022/05/26 07:12:34;;;;;;;6.60;2.30;;;20.60;93.30;;;;;;4977204;28;92474;-72
2022/05/26 07:15:03;;;;;;;3.03;1.40;;;20.70;92.80;;;;;;4977270;28;92960;-73
2022/05/26 07:17:31;;;;;;;4.35;1.33;;;20.70;92.40;;;;;;4975292;28;95616;-72
2022/05/26 07:19:58;;;;;;;4.00;1.65;;;20.60;92.30;;;;;;4959454;28;95452;-72
2022/05/26 07:22:24;;;;;;;3.55;1.83;;;20.50;92.30;;;;;;4959520;28;92457;-73
2022/05/26 07:24:51;;;;;;;6.85;1.30;;;20.40;92.00;;;;;;4958913;28;92627;-72
2022/05/26 07:27:19;;;;;;;3.90;1.42;;;20.40;91.50;;;;;;4957722;28;106480;-72
2022/05/26 07:29:51;;;;;;;2.83;2.13;;;20.50;91.50;;;;;;4959117;28;95667;-73
2022/05/26 07:32:19;;;;;;;5.22;2.17;;;20.50;91.40;;;;;;4976725;28;92441;-73
2022/05/26 07:34:46;;;;;;;5.60;1.75;;;20.60;91.30;;;;;;4959387;28;91656;-72
2022/05/26 07:42:44;;;;;;;3.50;1.83;;;21.00;90.50;;;;;;4975705;28;94797;-73
2022/05/26 07:45:12;;;;;;;4.20;1.30;;;21.10;90.00;;;;;;4942585;28;93070;-73
2022/05/26 07:47:40;;;;;;;4.28;2.05;;;21.40;90.40;;;;;;4958416;28;96024;-73
2022/05/26 07:50:11;;;;;;;4.18;1.48;;;21.70;89.90;;;;;;4976427;28;93041;-72
2022/05/26 07:52:38;;;;;;;3.10;1.17;;;21.90;88.50;;;;;;4976199;28;92841;-73
2022/05/26 07:55:06;;;;;;;4.85;1.55;;;21.90;88.80;;;;;;4976550;28;92524;-72
2022/05/26 07:57:33;;;;;;;7.47;1.48;;;22.00;86.80;;;;;;4976102;28;93119;-73
2022/05/26 08:00:00;;;;;;;2.72;1.40;;;22.00;87.00;;;;;;4959169;28;92912;-73
2022/05/26 08:02:38;;;;;;;2.45;1.17;;;22.30;86.40;;;;;;4975007;28;92506;-72
2022/05/26 08:05:07;;;;;;;3.47;1.60;;;22.80;85.10;;;;;;4976156;28;92445;-73
2022/05/26 08:07:34;;;;;;;2.97;2.28;;;23.30;83.50;;;;;;4956811;28;98208;-73
2022/05/26 08:10:02;;;;;;;3.90;2.35;;;24.00;82.70;;;;;;4958381;28;95372;-73
2022/05/26 08:12:29;;;;;;;2.28;1.25;;;24.70;80.50;;;;;;4958269;28;92533;-73
2022/05/26 08:14:56;;;;;;;4.30;2.35;;;25.50;78.20;;;;;;4958719;28;92508;-73
2022/05/26 08:17:23;;;;;;;2.83;2.33;;;26.40;75.00;;;;;;4975841;28;92413;-73
2022/05/26 08:19:51;;;;;;;3.75;1.77;;;27.00;70.70;;;;;;4976055;28;92988;-73
2022/05/26 08:22:19;;;;;;;2.53;2.15;;;27.60;68.50;;;;;;4975939;28;92470;-73
2022/05/26 08:24:54;;;;;;;2.80;1.17;;;27.90;65.90;;;;;;4976006;28;100053;-73
2022/05/26 08:27:21;;;;;;;4.18;2.05;;;28.30;62.20;;;;;;4957921;28;95816;-73
2022/05/26 08:29:49;;;;;;;2.65;1.35;;;28.20;61.30;;;;;;4975553;28;102926;-73
2022/05/26 08:32:19;;;;;;;2.92;1.52;;;27.80;61.20;;;;;;4957136;28;94970;-73
2022/05/26 08:34:47;;;;;;;3.03;2.40;;;27.50;60.40;;;;;;4976096;28;92918;-73
2022/05/26 08:37:19;;;;;;;4.05;1.88;;;27.60;61.50;;;;;;4975528;28;93262;-73
2022/05/26 08:39:47;;;;;;;3.13;0.88;;;27.70;61.20;;;;;;4975710;28;92880;-73
2022/05/26 08:42:31;;;;;;;5.28;2.58;;;27.50;58.90;;;;;;4958469;28;92409;-73
2022/05/26 08:45:11;;;;;;;3.17;1.33;;;27.40;57.60;;;;;;4975985;28;92356;-73
2022/05/26 08:47:46;;;;;;;3.45;1.95;;;27.50;58.20;;;;;;4958064;28;93325;-73
2022/05/26 08:50:22;;;;;;;3.00;1.75;;;27.70;58.40;;;;;;4976250;28;91810;-73
2022/05/26 08:53:01;;;;;;;6.07;1.90;;;27.70;57.10;;;;;;4975350;28;92476;-73
2022/05/26 08:55:33;;;;;;;2.63;2.42;;;27.40;58.50;;;;;;4975978;28;92877;-73
2022/05/26 08:58:06;;;;;;;;;;;27.50;58.20;;;;;;4956910;28;98113;-73
2022/05/26 09:00:35;;;;;;;4.63;2.60;;;27.40;57.20;;;;;;4958628;28;100098;-73
2022/05/26 09:03:11;;;;;;;3.42;1.50;;;27.70;55.80;;;;;;4975689;28;92402;-73
2022/05/26 09:06:07;;;;;;;2.20;1.85;;;27.90;55.30;;;;;;4941351;28;92364;-73
2022/05/26 09:14:02;;;;;;;3.70;1.10;;;27.20;54.90;;;;;;4975453;28;92433;-73
2022/05/26 09:16:34;;;;;;;4.07;2.47;;;27.00;55.00;;;;;;4941532;28;91823;-73
2022/05/26 09:19:15;;;;;;;1.55;1.02;;;26.90;56.20;;;;;;4957397;28;95767;-73
2022/05/26 09:21:43;;;;;;;2.95;2.22;;;26.80;57.10;;;;;;4957123;28;95689;-73
2022/05/26 09:24:28;;;;;;;2.17;1.00;;;26.40;57.60;;;;;;4974224;28;95000;-73
2022/05/26 09:26:59;;;;;;;2.40;1.42;;;26.30;58.40;;;;;;4975481;28;92633;-73
2022/05/26 09:29:32;;;;;;;4.10;1.83;;;25.80;56.60;;;;;;4957802;28;93318;-73
2022/05/26 09:32:00;;;;;;;;;;;25.50;56.80;;;;;;4975908;28;92983;-73
2022/05/26 09:35:13;;;;;;;1.88;1.73;;;25.10;57.80;;;;;;4975420;28;92649;-73
2022/05/26 09:37:41;;;;;;;;;;;25.00;58.70;;;;;;4957622;28;92412;-73
2022/05/26 09:40:25;;;;;;;3.92;1.80;;;24.60;60.10;;;;;;4958328;28;95801;-73
2022/05/26 09:43:02;;;;;;;3.92;1.00;;;24.60;60.60;;;;;;4958040;28;93031;-73
2022/05/26 09:45:54;;;;;;;3.20;1.08;;;24.40;60.90;;;;;;4975397;28;92511;-72
2022/05/26 09:48:38;;;;;;;4.53;2.03;;;24.50;61.50;;;;;;4975337;28;92400;-72
2022/05/26 09:51:26;;;;;;;4.88;2.28;;;24.50;62.30;;;;;;4927180;28;98136;-73
2022/05/26 09:53:55;;;;;;;3.42;1.20;;;24.30;62.40;;;;;;4960185;28;95354;-72
2022/05/26 09:56:40;;;;;;;4.03;2.92;;;24.00;63.80;;;;;;4960822;28;93050;-73
2022/05/26 09:59:39;;;;;;;3.20;1.13;;;24.10;64.00;;;;;;4960515;28;92949;-73
2022/05/26 10:02:29;;;;;;;3.83;1.70;;;24.00;64.00;;;;;;4978155;28;93403;-73
2022/05/26 10:05:14;;;;;;;2.50;2.28;;;23.90;63.90;;;;;;4977865;28;93085;-73
2022/05/26 10:08:00;;;;;;;4.28;2.58;;;23.80;64.20;;;;;;4943577;28;94601;-72
2022/05/26 10:10:49;;;;;;;3.38;1.42;;;23.70;64.60;;;;;;4978391;28;91742;-73
2022/05/26 10:13:36;;;;;;;4.13;1.33;;;23.60;65.70;;;;;;4960439;28;93198;-73
2022/05/26 10:16:35;;;;;;;6.13;2.67;;;23.60;65.20;;;;;;4977983;28;93048;-72
2022/05/26 10:19:06;;;;;;;2.47;1.10;;;23.70;66.90;;;;;;4946265;28;94915;-72
2022/05/26 10:22:13;;;;;;;2.08;1.48;;;23.60;66.50;;;;;;4960184;28;92517;-72
2022/05/26 10:24:56;;;;;;;4.03;1.30;;;23.70;66.20;;;;;;4946674;28;93177;-72
2022/05/26 10:27:23;;;;;;;;;;;23.80;65.60;;;;;;4978318;28;93160;-72
2022/05/26 10:30:09;;;;;;;5.10;1.92;;;23.80;65.10;;;;;;4960828;28;92517;-72
2022/05/26 10:33:11;;;;;;;2.92;1.52;;;24.00;64.10;;;;;;4960070;28;92533;-72
2022/05/26 10:35:43;;;;;;;4.47;1.40;;;24.20;63.80;;;;;;4943650;28;97726;-72
2022/05/26 10:38:23;;;;;;;2.35;2.25;;;24.10;63.10;;;;;;4978003;28;93046;-72
2022/05/26 10:41:09;;;;;;;4.72;1.85;;;24.30;62.70;;;;;;4977757;28;92472;-72
2022/05/26 10:43:45;;;;;;;3.28;1.08;;;24.40;63.40;;;;;;4977798;28;92527;-72
2022/05/26 10:46:12;;;;;;;2.33;0.95;;;24.50;63.50;;;;;;4976159;28;95673;-72
2022/05/26 10:49:11;;;;;;;3.38;2.08;;;24.30;61.60;;;;;;4959456;28;97799;-72
2022/05/26 10:51:55;;;;;;;3.15;1.27;;;24.30;62.50;;;;;;4962002;28;92628;-72
2022/05/26 10:54:33;;;;;;;2.60;1.65;;;24.10;62.10;;;;;;4959849;28;92812;-72
2022/05/26 10:57:10;;;;;;;1.73;1.23;;;24.00;63.30;;;;;;4977343;28;93175;-72
2022/05/26 10:59:55;;;;;;;4.10;3.15;;;23.80;63.80;;;;;;4959428;28;94487;-72
2022/05/26 11:02:32;;;;;;;4.75;2.25;;;23.70;64.80;;;;;;4977708;28;92552;-72
2022/05/26 11:05:12;;;;;;;2.50;1.17;;;23.60;64.80;;;;;;4959305;28;91769;-72
2022/05/26 11:07:44;;;;;;;2.47;0.70;;;23.70;65.10;;;;;;4959366;28;95924;-72
2022/05/26 11:10:22;;;;;;;2.17;1.67;;;23.80;65.30;;;;;;4959317;28;95686;-72
2022/05/26 11:13:01;;;;;;;2.75;1.52;;;23.80;65.60;;;;;;4976016;28;94830;-72
2022/05/26 11:18:48;;;;;;;5.97;2.83;;;23.60;65.70;;;;;;4959301;28;95976;-72
2022/05/26 11:21:18;;;;;;;;;;;23.60;66.60;;;;;;4959589;28;95541;-72
2022/05/26 11:23:46;;;;;;;4.60;2.38;;;23.30;66.10;;;;;;4977896;28;92345;-72
2022/05/26 11:26:22;;;;;;;6.63;1.45;;;23.40;66.40;;;;;;4959026;28;92544;-72
2022/05/26 11:29:20;;;;;;;2.85;1.20;;;23.50;66.80;;;;;;4976652;28;93122;-72
2022/05/26 11:37:40;;;;;;;2.42;1.73;;;23.20;69.40;;;;;;4977062;28;92393;-72
2022/05/26 11:40:11;;;;;;;4.18;1.48;;;23.30;69.90;;;;;;4975264;28;95697;-72
2022/05/26 11:42:58;;;;;;;3.42;1.90;;;23.30;69.70;;;;;;4976218;28;94225;-72
2022/05/26 11:45:29;;;;;;;3.40;1.40;;;23.40;69.40;;;;;;4976769;28;92957;-72
2022/05/26 11:48:32;;;;;;;4.53;2.53;;;23.20;69.60;;;;;;4959174;28;92610;-72
2022/05/26 11:51:28;;;;;;;5.25;3.08;;;23.20;70.00;;;;;;4976004;28;93209;-72
2022/05/26 11:53:55;;;;;;;4.07;2.83;;;23.20;70.90;;;;;;4947211;28;93001;-73
2022/05/26 11:56:28;;;;;;;4.65;1.90;;;23.10;71.30;;;;;;4957044;28;92499;-73
2022/05/26 11:59:26;;;;;;;3.67;1.58;;;23.30;70.90;;;;;;4957386;28;91803;-73
2022/05/26 12:02:01;;;;;;;3.22;1.65;;;23.50;71.30;;;;;;4956333;28;94146;-73
2022/05/26 12:04:40;;;;;;;6.57;2.22;;;23.50;71.70;;;;;;4956762;28;93016;-73
2022/05/26 12:07:17;;;;;;;3.72;1.70;;;23.30;71.70;;;;;;4955774;28;95542;-73
2022/05/26 12:09:54;;;;;;;3.83;2.47;;;23.10;72.50;;;;;;4956733;28;92456;-73
2022/05/26 12:12:21;;;;;;;3.80;2.08;;;23.00;73.20;;;;;;4956279;28;93221;-72
2022/05/26 12:14:52;;;;;;;5.75;1.95;;;22.80;73.00;;;;;;4956555;28;92937;-72
2022/05/26 12:17:30;;;;;;;3.50;1.17;;;22.80;72.20;;;;;;4956951;28;92429;-72
2022/05/26 12:19:58;;;;;;;5.70;2.80;;;22.90;71.30;;;;;;4956447;28;92435;-72
2022/05/26 12:22:31;;;;;;;2.28;1.70;;;22.70;70.90;;;;;;4956444;28;93184;-72
2022/05/26 12:25:01;;;;;;;4.28;1.52;;;22.70;71.00;;;;;;4956402;28;92080;-72
2022/05/26 12:28:06;;;;;;;3.95;3.65;;;22.60;71.20;;;;;;4956827;28;92793;-72
2022/05/26 12:30:45;;;;;;;5.50;2.08;;;23.00;71.30;;;;;;4956407;28;92446;-72
2022/05/26 12:33:19;;;;;;;3.72;1.75;;;23.10;71.00;;;;;;4954665;28;94870;-72
2022/05/26 12:35:52;;;;;;;;;;;23.10;69.80;;;;;;4956677;28;95361;-72
2022/05/26 12:38:52;;;;;;;3.42;2.25;;;22.90;70.30;;;;;;4957503;28;92465;-72
2022/05/26 12:41:28;;;;;;;4.95;2.38;;;23.10;69.40;;;;;;4954650;28;92456;-72
2022/05/26 12:44:13;;;;;;;4.82;1.65;;;23.20;69.70;;;;;;4956214;28;93402;-72
2022/05/26 12:46:50;;;;;;;4.55;2.92;;;23.30;69.60;;;;;;4955734;28;93182;-72
2022/05/26 12:49:35;;;;;;;4.88;2.45;;;23.30;69.40;;;;;;4955893;28;92392;-72
2022/05/26 12:52:15;;;;;;;3.28;2.15;;;23.40;68.50;;;;;;4955307;28;91631;-72
2022/05/26 12:55:12;;;;;;;4.03;2.33;;;23.60;68.30;;;;;;4975036;28;93190;-72
2022/05/26 12:57:46;;;;;;;7.15;2.75;;;23.80;68.60;;;;;;4931767;28;92501;-72
2022/05/26 13:00:34;;;;;;;5.40;1.60;;;23.70;68.20;;;;;;4956300;28;94883;-72
2022/05/26 13:03:13;;;;;;;3.67;2.40;;;23.70;67.20;;;;;;4975363;28;92492;-72
2022/05/26 13:05:43;;;;;;;4.15;1.35;;;23.60;67.10;;;;;;4975648;28;93269;-72
2022/05/26 13:08:21;;;;;;;3.25;1.38;;;23.50;67.80;;;;;;4974804;28;94108;-72
2022/05/26 13:10:56;;;;;;;4.10;1.58;;;23.60;68.30;;;;;;4975603;28;92381;-72
2022/05/26 13:13:43;;;;;;;3.00;2.38;;;23.70;68.00;;;;;;4957585;28;92605;-72
2022/05/26 13:16:27;;;;;;;4.20;2.15;;;23.70;66.70;;;;;;4975117;28;93216;-72
2022/05/26 13:18:55;;;;;;;4.05;0.98;;;23.70;66.60;;;;;;4959711;28;93084;-72
2022/05/26 13:21:30;;;;;;;4.47;1.95;;;23.60;67.30;;;;;;4957084;28;92549;-72
2022/05/26 13:23:57;;;;;;;6.30;1.30;;;23.70;66.60;;;;;;4958520;28;92585;-72
2022/05/26 13:26:24;;;;;;;3.08;1.95;;;23.70;66.40;;;;;;4959635;28;95401;-72
2022/05/26 13:28:54;;;;;;;3.78;1.40;;;23.90;66.50;;;;;;4944164;28;97922;-72
2022/05/26 13:34:26;;;;;;;5.95;2.35;;;24.00;65.30;;;;;;4927782;28;93605;-72
2022/05/26 13:36:53;;;;;;;1.98;1.15;;;23.90;66.40;;;;;;4960900;28;93334;-72
2022/05/26 13:39:25;;;;;;;4.10;1.23;;;23.90;65.90;;;;;;4944710;28;93087;-72
2022/05/26 13:41:54;;;;;;;2.30;1.65;;;23.90;65.40;;;;;;4978520;28;92500;-72
2022/05/26 13:44:30;;;;;;;3.63;1.48;;;23.80;65.70;;;;;;4978688;28;91694;-72
2022/05/26 13:46:58;;;;;;;8.93;1.70;;;23.70;65.90;;;;;;4960355;28;95772;-72
2022/05/26 13:49:41;;;;;;;5.57;1.48;;;23.60;66.60;;;;;;4944292;28;95461;-72
2022/05/26 13:52:14;;;;;;;5.82;1.70;;;23.70;67.00;;;;;;4959465;28;94858;-72
2022/05/26 13:54:43;;;;;;;;;;;23.60;66.70;;;;;;4978801;28;92478;-72
2022/05/26 13:57:21;;;;;;;5.45;1.95;;;23.50;66.90;;;;;;4961520;28;93160;-72
2022/05/26 13:59:55;;;;;;;4.57;2.25;;;23.70;67.70;;;;;;4978010;28;93027;-72